Fort Wayne, IN (46802)

7:53 PM EST on December 05, 2016 (GMT -0500)
Oakdale | | Change Station

Elev 794 ft 41.05 °N, 85.14 °W | Updated 11 seconds ago

Scattered Clouds
Scattered Clouds
30.0 °F
Feels Like 30 °F
N
0.0
Wind Variable Wind from ESE

Today
High -- | Low -- °F
--% Chance of Precip.
Yesterday
High -- | Low -- °F
Precip. -- in
Pressure 30.06 in
Visibility 10.0 miles
Clouds Few 1000 ft
Scattered Clouds 25000 ft
Windchill 30 °F
Dew Point 28 °F
Humidity 96%
Rainfall 0.00 in
Snow Depth Not available.
7:50 AM 5:12 PM
Waxing Crescent, 36% visible
METAR KFWA 052354Z 09006KT 10SM FEW010 SCT250 M01/M03 A3003 RMK AO2 SLP178 T10111028 10022 21011 56011
Pressure 30.06 in
Visibility 10.0 miles
Clouds Few 1000 ft
Scattered Clouds 25000 ft
Windchill 30 °F
Dew Point 28 °F
Humidity 96%
Rainfall 0.00 in
Snow Depth Not available.
7:50 AM 5:12 PM
Waxing Crescent, 36% visible
METAR KFWA 052354Z 09006KT 10SM FEW010 SCT250 M01/M03 A3003 RMK AO2 SLP178 T10111028 10022 21011 56011

10-Day Weather Forecast

Almanac

Astronomy

Dec. 05, 2016 Rise Set
Actual Time
Civil Twilight
Nautical Twilight
Astronomical Twilight
Moon
Length of Visible Light
Length of Day
Tomorrow will be .
, % of the Moon is Illuminated

Today's Extremes

State Highs State Lows

Community

WunderPhotos

Upload Photos

1,955,886 photos uploaded!

WunderBlog® & News

Nearby

Air Quality

  Air Quality AQ Index Pollutant
Not available.

Snow Depth

Station Depth Elevation

Earthquake Activity

City Distance Mag. Time & Date
Minimum magnitude displayed is 2.5.

Coastal Water Temperatures

Place Temperature

Stations

Nearby Weather Stations

Station Location Temp. Windchill Dew Point Humidity Wind Precip. Elev Updated Type
                   

Watches & Warnings

There are currently no watches in effect.